Pagrindinis puslapis
METAR-TAF:

METAR-TAF

Oro uostai :

Kuskas, Peru

platuma: 13-33S, ilguma: 071-59W, Aukštis: 3248 m

Dabartinis oras

Ataskaita buvo paskelbta 25 minutes, ne 15:00 UTC
Vėjas 3 kt nuo kintamojo kryptimis
Temperatūra 15°C
Drėgmė 51%
Slėgis 1036 hPa
Matomumas 10 km arba daugiau
Išsisklaidę debesys ne aukštis 10000 ft

METAR: SPZO 251500Z VRB03KT 9999 SCT100 15/05 Q1036 NOSIG RMK BIRD HAZARD RWY 10/28 PP000

Laikas: 10:25 (15:25 UTC)

Prognozė

Ataskaita buvo paskelbta 4 valandos ir 25 minutes, ne 11:00 UTC
Prognozė galioja nuo 25 metu 12 UTC su 26 metu 12 UTC
Vėjas 5 kt nuo kintamojo kryptimis
Matomumas 10 km arba daugiau
Išsisklaidę debesys ne aukštis 4000 ft
Laikinai
nuo 25 metu 20 UTC su 25 metu 23 UTC
Vėjas 15 kt iš Šiaurės

TAF: SPZO 251100Z 2512/2612 VRB05KT 9999 SCT040 TX22/2519Z TN01/2611Z TEMPO 2520/2523 01015KT

Orai ataskaitas ir orų prognozės (METAR, TAF).

turimą stotys yra geltonos ir raudonos taškus žemėlapyje.

Perkelti pele per norėdami pamatyti stoties vardą.

Tada spustelėkite, norėdami matyti oro stebėjimo ir prognozės.

Norėdami pakeisti žemėlapį: spustelėkite ant žalios mygtukų su juodo kryžiaus žemyn,; žalią mygtuką su brūkšneliu, jei norite nutolinti; arba žalių rodyklių gretimoms žemėlapius.


METAR-TAF: